Time;durP1;ratioP1;P1;durP2;ratioP2;P2;SDS_P1;SDS_P2;PMS_P1;PMS_P2;Temp;Humidity;BMP_temperature;BMP_pressure;BME280_temperature;BME280_humidity;BME280_pressure;Samples;Min_cycle;Max_cycle;Signal;HPM_P1;HPM_P2
2023/06/01 00:00:35;;;;;;;10.63;6.20;;;13.60;99.90;;;;;;5023209;28;21464;-84
2023/06/01 00:03:00;;;;;;;10.80;5.85;;;13.60;99.90;;;;;;5021633;28;20037;-85
2023/06/01 00:05:26;;;;;;;12.25;6.03;;;13.60;99.90;;;;;;5021127;28;20219;-85
2023/06/01 00:07:51;;;;;;;10.38;6.60;;;13.50;99.90;;;;;;5021912;28;20030;-85
2023/06/01 00:10:17;;;;;;;10.48;6.53;;;13.50;99.90;;;;;;5020630;28;21438;-85
2023/06/01 00:12:43;;;;;;;10.30;5.70;;;13.40;99.90;;;;;;5020866;28;21282;-85
2023/06/01 00:15:09;;;;;;;14.77;6.43;;;13.40;99.90;;;;;;5019821;28;20026;-85
2023/06/01 00:17:34;;;;;;;10.50;6.40;;;13.40;99.90;;;;;;5019694;28;20042;-86
2023/06/01 00:20:08;;;;;;;11.45;6.32;;;13.40;99.90;;;;;;5022102;28;20033;-86
2023/06/01 00:22:38;;;;;;;8.90;6.13;;;13.30;99.90;;;;;;5020107;28;20838;-85
2023/06/01 00:25:06;;;;;;;9.88;6.60;;;13.30;99.90;;;;;;5020619;28;20054;-86
2023/06/01 00:27:32;;;;;;;13.13;6.65;;;13.30;99.90;;;;;;5020043;28;20050;-85
2023/06/01 00:29:57;;;;;;;14.68;6.68;;;13.20;99.90;;;;;;5020972;28;21263;-86
2023/06/01 00:32:23;;;;;;;8.63;6.68;;;13.20;99.90;;;;;;5020850;28;20650;-85
2023/06/01 00:34:48;;;;;;;10.68;6.63;;;13.20;99.90;;;;;;5020459;28;20029;-85
2023/06/01 00:37:14;;;;;;;11.60;7.65;;;13.20;99.90;;;;;;5020275;28;20532;-85
2023/06/01 00:39:39;;;;;;;12.32;6.70;;;13.10;99.90;;;;;;5019826;28;20044;-85
2023/06/01 00:42:06;;;;;;;11.95;7.07;;;13.10;99.90;;;;;;5020221;28;20062;-85
2023/06/01 00:44:31;;;;;;;11.50;7.05;;;13.10;99.90;;;;;;5020607;28;20100;-83
2023/06/01 00:46:59;;;;;;;10.25;7.38;;;13.10;99.90;;;;;;5021446;28;20182;-83
2023/06/01 00:49:25;;;;;;;11.70;6.78;;;13.00;99.90;;;;;;5020169;28;20026;-84
2023/06/01 00:51:50;;;;;;;10.00;7.13;;;13.00;99.90;;;;;;5019730;28;20160;-84
2023/06/01 00:54:16;;;;;;;11.85;7.13;;;13.00;99.90;;;;;;5021397;28;20038;-83
2023/06/01 00:56:42;;;;;;;12.00;7.13;;;13.00;99.90;;;;;;5019513;28;20583;-84
2023/06/01 00:59:08;;;;;;;11.98;7.30;;;12.90;99.90;;;;;;5019532;28;20042;-84
2023/06/01 01:01:36;;;;;;;13.48;7.03;;;12.90;99.90;;;;;;5018420;28;20478;-83
2023/06/01 01:04:02;;;;;;;14.40;6.85;;;12.90;99.90;;;;;;5021325;28;20034;-83
2023/06/01 01:06:57;;;;;;;13.75;6.55;;;12.80;99.90;;;;;;5019691;28;20033;-83
2023/06/01 01:09:27;;;;;;;12.18;7.10;;;12.80;99.90;;;;;;5020177;28;20026;-84
2023/06/01 01:12:07;;;;;;;10.73;6.70;;;12.80;99.90;;;;;;5020134;28;20101;-83
2023/06/01 01:15:12;;;;;;;10.43;7.00;;;12.80;99.90;;;;;;5020428;28;20025;-83
2023/06/01 01:17:42;;;;;;;10.90;7.10;;;12.70;99.90;;;;;;4971344;28;20050;-83
2023/06/01 01:20:35;;;;;;;10.70;6.50;;;12.70;99.90;;;;;;5020415;28;20040;-84
2023/06/01 01:23:00;;;;;;;9.57;6.65;;;12.70;99.90;;;;;;5016068;28;20263;-83
2023/06/01 01:26:06;;;;;;;12.60;7.13;;;12.60;99.90;;;;;;5024920;28;20069;-83
2023/06/01 01:28:48;;;;;;;13.30;7.57;;;12.60;99.90;;;;;;4991071;28;20041;-83
2023/06/01 01:31:18;;;;;;;12.32;7.07;;;12.60;99.90;;;;;;5020058;28;20049;-83
2023/06/01 01:33:46;;;;;;;10.90;7.63;;;12.50;99.90;;;;;;5019846;28;20057;-83
2023/06/01 01:36:12;;;;;;;11.02;7.43;;;12.50;99.90;;;;;;5020524;28;20038;-83
2023/06/01 01:38:38;;;;;;;12.00;7.25;;;12.40;99.90;;;;;;5021164;28;20489;-83
2023/06/01 01:41:04;;;;;;;10.70;7.32;;;12.40;99.90;;;;;;5021505;28;20034;-83
2023/06/01 01:43:31;;;;;;;13.63;7.30;;;12.40;99.90;;;;;;5021493;28;20778;-83
2023/06/01 01:46:27;;;;;;;12.02;7.18;;;12.30;99.90;;;;;;5019185;28;20022;-84
2023/06/01 01:49:12;;;;;;;15.35;7.78;;;12.30;99.90;;;;;;5020462;28;20034;-83
2023/06/01 01:51:56;;;;;;;11.60;7.40;;;12.30;99.90;;;;;;5020936;28;20124;-83
2023/06/01 01:54:23;;;;;;;12.50;7.25;;;12.20;99.90;;;;;;5021517;28;20593;-83
2023/06/01 01:56:51;;;;;;;11.40;6.97;;;12.20;99.90;;;;;;5021123;28;20038;-83
2023/06/01 01:59:18;;;;;;;10.73;7.45;;;12.20;99.90;;;;;;5022443;28;20080;-83
2023/06/01 02:01:44;;;;;;;13.77;8.00;;;12.20;99.90;;;;;;5024160;28;20037;-83
2023/06/01 02:04:10;;;;;;;10.13;6.75;;;12.10;99.90;;;;;;5020909;28;20044;-83
2023/06/01 02:06:36;;;;;;;15.05;7.38;;;12.10;99.90;;;;;;5019509;28;20034;-84
2023/06/01 02:09:06;;;;;;;13.02;7.47;;;12.10;99.90;;;;;;5020762;28;20049;-84
2023/06/01 02:11:32;;;;;;;11.27;7.43;;;12.00;99.90;;;;;;5017394;28;20068;-83
2023/06/01 02:13:57;;;;;;;10.23;7.10;;;12.00;99.90;;;;;;5019375;28;20026;-83
2023/06/01 02:16:23;;;;;;;13.23;7.32;;;12.00;99.90;;;;;;5019107;28;20044;-84
2023/06/01 02:18:50;;;;;;;11.43;7.10;;;12.00;99.90;;;;;;5018388;28;20237;-84
2023/06/01 02:21:15;;;;;;;10.75;7.47;;;12.00;99.90;;;;;;5017066;28;20038;-84
2023/06/01 02:23:42;;;;;;;12.63;6.93;;;12.00;99.90;;;;;;5018532;28;20060;-83
2023/06/01 02:26:08;;;;;;;13.90;8.02;;;11.90;99.90;;;;;;5019512;28;20114;-83
2023/06/01 02:28:40;;;;;;;11.13;8.00;;;11.90;99.90;;;;;;5018700;28;20056;-83
2023/06/01 02:31:06;;;;;;;13.05;7.65;;;11.90;99.90;;;;;;5018529;28;20049;-84
2023/06/01 02:33:32;;;;;;;12.85;7.50;;;11.90;99.90;;;;;;5017878;28;20033;-83
2023/06/01 02:35:58;;;;;;;12.35;7.43;;;11.90;99.90;;;;;;5017985;28;20881;-85
2023/06/01 02:38:24;;;;;;;14.93;8.30;;;11.90;99.90;;;;;;5017969;28;20608;-84
2023/06/01 02:40:50;;;;;;;11.00;6.95;;;11.80;99.90;;;;;;5017642;28;20025;-84
2023/06/01 02:43:16;;;;;;;12.15;7.85;;;11.80;99.90;;;;;;5017395;28;20034;-84
2023/06/01 02:45:41;;;;;;;13.50;8.45;;;11.80;99.90;;;;;;5017079;28;20282;-84
2023/06/01 02:48:07;;;;;;;13.38;7.75;;;11.80;99.90;;;;;;5017721;28;20492;-83
2023/06/01 02:50:33;;;;;;;10.55;7.00;;;11.80;99.90;;;;;;5000401;28;20029;-83
2023/06/01 02:52:58;;;;;;;11.18;7.80;;;11.80;99.90;;;;;;5017246;28;20064;-85
2023/06/01 02:55:24;;;;;;;13.45;8.18;;;11.80;99.90;;;;;;5015802;28;20030;-83
2023/06/01 02:57:49;;;;;;;13.48;8.18;;;11.80;99.90;;;;;;5015993;28;20040;-84
2023/06/01 03:00:15;;;;;;;12.43;7.22;;;11.70;99.90;;;;;;5017919;28;20033;-83
2023/06/01 03:02:45;;;;;;;15.70;8.45;;;11.70;99.90;;;;;;5015833;28;20033;-84
2023/06/01 03:05:14;;;;;;;13.23;7.72;;;11.70;99.90;;;;;;5015723;28;20038;-84
2023/06/01 03:07:47;;;;;;;11.60;7.85;;;11.60;99.90;;;;;;5014862;28;20034;-83
2023/06/01 03:10:12;;;;;;;14.80;7.53;;;11.60;99.90;;;;;;5014521;28;20030;-84
2023/06/01 03:12:38;;;;;;;11.40;7.18;;;11.60;99.90;;;;;;5007164;28;20123;-85
2023/06/01 03:15:04;;;;;;;15.02;7.80;;;11.60;99.90;;;;;;5003575;28;20084;-85
2023/06/01 03:17:31;;;;;;;12.13;7.68;;;11.60;99.90;;;;;;5009468;28;20422;-84
2023/06/01 03:19:57;;;;;;;13.23;7.90;;;11.50;99.90;;;;;;5009348;28;20034;-84
2023/06/01 03:22:23;;;;;;;11.82;7.93;;;11.60;99.90;;;;;;5013656;28;20036;-84
2023/06/01 03:24:49;;;;;;;14.00;7.78;;;11.50;99.90;;;;;;5017231;28;20058;-84
2023/06/01 03:27:16;;;;;;;19.65;8.75;;;11.60;99.90;;;;;;5017097;28;20037;-84
2023/06/01 03:29:41;;;;;;;17.50;8.55;;;11.50;99.90;;;;;;5016572;28;20033;-84
2023/06/01 03:32:08;;;;;;;13.80;8.35;;;11.50;99.90;;;;;;5017115;28;20142;-84
2023/06/01 03:34:36;;;;;;;15.32;8.45;;;11.50;99.90;;;;;;5016674;28;20034;-84
2023/06/01 03:37:05;;;;;;;16.35;7.88;;;11.50;99.90;;;;;;5017048;28;20042;-84
2023/06/01 03:39:35;;;;;;;16.95;7.82;;;11.50;99.90;;;;;;5016389;28;20026;-83
2023/06/01 03:42:01;;;;;;;11.43;7.05;;;11.40;99.90;;;;;;5017511;28;20368;-83
2023/06/01 03:44:27;;;;;;;18.63;8.40;;;11.40;99.90;;;;;;5017020;28;20022;-84
2023/06/01 03:46:52;;;;;;;12.07;7.93;;;11.40;99.90;;;;;;5016045;28;20040;-84
2023/06/01 03:49:18;;;;;;;12.75;7.72;;;11.40;99.90;;;;;;5016059;28;21700;-83
2023/06/01 03:51:44;;;;;;;12.88;8.40;;;11.40;99.90;;;;;;5015489;28;20053;-84
2023/06/01 03:54:10;;;;;;;11.80;7.88;;;11.40;99.90;;;;;;5015366;28;20665;-84
2023/06/01 03:56:36;;;;;;;12.88;8.02;;;11.40;99.90;;;;;;5015217;28;20034;-84
2023/06/01 03:59:01;;;;;;;12.65;8.40;;;11.40;99.90;;;;;;5017228;28;20026;-83
2023/06/01 04:01:32;;;;;;;16.40;8.00;;;11.40;99.90;;;;;;5017997;28;20034;-84
2023/06/01 04:03:58;;;;;;;12.75;7.30;;;11.40;99.90;;;;;;5019062;28;20037;-84
2023/06/01 04:06:23;;;;;;;11.73;7.82;;;11.40;99.90;;;;;;5020781;28;20038;-83
2023/06/01 04:08:55;;;;;;;12.98;8.35;;;11.50;99.90;;;;;;5022172;28;20026;-85
2023/06/01 04:11:21;;;;;;;13.10;8.35;;;11.50;99.90;;;;;;5021873;28;20034;-84
2023/06/01 04:13:47;;;;;;;13.30;8.30;;;11.50;99.90;;;;;;5016627;28;20088;-84
2023/06/01 04:16:13;;;;;;;14.07;7.95;;;11.60;99.90;;;;;;5015214;28;20037;-84
2023/06/01 04:18:39;;;;;;;13.43;7.60;;;11.70;99.90;;;;;;5015893;28;20033;-85
2023/06/01 04:21:06;;;;;;;13.20;7.72;;;11.70;99.90;;;;;;5014833;28;20070;-85
2023/06/01 04:23:32;;;;;;;13.07;8.57;;;11.80;99.90;;;;;;5014244;28;20542;-84
2023/06/01 04:25:59;;;;;;;13.57;8.15;;;11.90;99.90;;;;;;5015715;28;20038;-84
2023/06/01 04:28:25;;;;;;;14.20;8.68;;;11.90;99.90;;;;;;5015534;28;20037;-84
2023/06/01 04:30:51;;;;;;;18.70;8.30;;;12.00;99.90;;;;;;5014711;28;20913;-85
2023/06/01 04:33:17;;;;;;;16.02;8.57;;;12.00;99.90;;;;;;5014423;28;20048;-85
2023/06/01 04:35:43;;;;;;;16.25;7.78;;;12.10;99.90;;;;;;5017836;28;20086;-85
2023/06/01 04:38:09;;;;;;;15.55;8.32;;;12.20;99.90;;;;;;5019967;28;20057;-85
2023/06/01 04:40:35;;;;;;;18.38;8.98;;;12.30;99.90;;;;;;5019065;28;20089;-85
2023/06/01 04:43:02;;;;;;;20.05;8.60;;;12.30;99.90;;;;;;5020361;28;20090;-85
2023/06/01 04:45:33;;;;;;;16.88;8.40;;;12.50;99.90;;;;;;5020060;28;20056;-85
2023/06/01 04:47:59;;;;;;;17.23;8.15;;;12.60;99.90;;;;;;5020768;28;20590;-86
2023/06/01 04:50:28;;;;;;;19.08;7.80;;;12.70;99.90;;;;;;5020733;28;20042;-85
2023/06/01 04:52:55;;;;;;;13.57;7.72;;;12.70;99.90;;;;;;5019970;28;20101;-85
2023/06/01 04:55:20;;;;;;;16.13;8.07;;;12.90;99.90;;;;;;5022660;28;20044;-85
2023/06/01 04:57:46;;;;;;;21.25;8.38;;;13.00;99.90;;;;;;5023991;28;20057;-85
2023/06/01 05:00:15;;;;;;;11.90;7.20;;;13.10;99.90;;;;;;5020101;28;20041;-85
2023/06/01 05:02:46;;;;;;;17.80;8.10;;;13.20;99.90;;;;;;5014822;28;20450;-86
2023/06/01 05:05:12;;;;;;;13.52;7.80;;;13.30;99.90;;;;;;5011954;28;21344;-86
2023/06/01 05:07:38;;;;;;;14.75;7.40;;;13.30;99.90;;;;;;5011509;28;20038;-85
2023/06/01 05:10:06;;;;;;;14.10;7.13;;;13.40;99.90;;;;;;5017789;28;20806;-85
2023/06/01 05:12:32;;;;;;;14.07;8.20;;;13.50;99.90;;;;;;5017265;28;20128;-85
2023/06/01 05:14:59;;;;;;;13.80;7.35;;;13.60;99.90;;;;;;5014413;28;20026;-85
2023/06/01 05:17:25;;;;;;;15.30;8.05;;;13.70;99.90;;;;;;5012814;28;20034;-86
2023/06/01 05:19:50;;;;;;;20.52;8.38;;;13.80;99.90;;;;;;5011818;28;20040;-76
2023/06/01 05:22:16;;;;;;;13.50;7.35;;;13.90;99.90;;;;;;5004716;28;20136;-75
2023/06/01 05:24:41;;;;;;;13.10;7.50;;;14.00;99.90;;;;;;5005395;28;20067;-76
2023/06/01 05:27:07;;;;;;;12.25;7.13;;;14.10;99.90;;;;;;5004518;28;20026;-75
2023/06/01 05:29:32;;;;;;;14.02;6.80;;;14.20;99.90;;;;;;5004098;28;20172;-76
2023/06/01 05:31:58;;;;;;;12.43;6.75;;;14.30;99.90;;;;;;5003879;28;20088;-76
2023/06/01 05:34:23;;;;;;;11.52;6.20;;;14.40;99.90;;;;;;5004049;28;20033;-75
2023/06/01 05:36:49;;;;;;;10.27;6.38;;;14.60;99.90;;;;;;5003340;28;20030;-75
2023/06/01 05:39:15;;;;;;;13.02;5.78;;;14.70;99.90;;;;;;5003888;28;20043;-75
2023/06/01 05:41:41;;;;;;;11.48;5.93;;;14.90;99.90;;;;;;4993615;22;20451;-75
2023/06/01 05:44:06;;;;;;;11.63;6.10;;;14.90;99.90;;;;;;4965355;28;20061;-75
2023/06/01 05:46:32;;;;;;;12.63;6.15;;;15.10;99.90;;;;;;4960141;28;20122;-76
2023/06/01 05:48:58;;;;;;;11.90;6.20;;;15.20;99.90;;;;;;4956116;28;20788;-77
2023/06/01 05:51:23;;;;;;;9.20;6.05;;;15.40;99.90;;;;;;4955740;28;20070;-83
2023/06/01 05:53:49;;;;;;;10.40;5.65;;;15.50;99.90;;;;;;4951960;28;20520;-84
2023/06/01 05:56:16;;;;;;;10.35;6.20;;;15.60;99.90;;;;;;4959073;28;20034;-84
2023/06/01 05:58:42;;;;;;;10.70;5.82;;;15.70;99.90;;;;;;4963907;28;20141;-83
2023/06/01 06:01:07;;;;;;;11.35;5.88;;;15.80;99.90;;;;;;4972610;28;20042;-84
2023/06/01 06:03:33;;;;;;;12.35;6.03;;;15.80;99.90;;;;;;4970292;28;20154;-85
2023/06/01 06:06:00;;;;;;;10.27;6.00;;;16.00;99.90;;;;;;4969272;28;20038;-85
2023/06/01 06:08:27;;;;;;;10.55;5.43;;;16.10;99.90;;;;;;4964198;28;20117;-84
2023/06/01 06:10:52;;;;;;;14.95;7.20;;;16.10;99.90;;;;;;4962028;28;20029;-84
2023/06/01 06:13:18;;;;;;;12.15;5.80;;;16.20;99.90;;;;;;4961021;28;20038;-84
2023/06/01 06:15:44;;;;;;;9.85;5.47;;;16.40;99.90;;;;;;4958119;28;20042;-84
2023/06/01 06:18:10;;;;;;;8.93;5.63;;;16.50;99.90;;;;;;4957763;28;20675;-84
2023/06/01 06:20:36;;;;;;;9.77;5.45;;;16.60;99.90;;;;;;4958219;28;20608;-84
2023/06/01 06:23:01;;;;;;;10.52;6.05;;;16.80;99.90;;;;;;4957816;28;20031;-84
2023/06/01 06:25:27;;;;;;;13.10;5.60;;;16.90;99.90;;;;;;4958032;28;20050;-83
2023/06/01 06:27:52;;;;;;;17.30;6.55;;;17.10;99.90;;;;;;4958699;28;20380;-84
2023/06/01 06:30:19;;;;;;;10.50;5.47;;;17.20;99.90;;;;;;4959869;28;20065;-83
2023/06/01 06:32:44;;;;;;;14.00;6.47;;;17.30;99.90;;;;;;4957281;28;20043;-85
2023/06/01 06:35:13;;;;;;;16.33;6.35;;;17.40;99.90;;;;;;4955887;28;20494;-84
2023/06/01 06:37:41;;;;;;;11.82;6.57;;;17.50;99.90;;;;;;4956913;28;21312;-83
2023/06/01 06:40:08;;;;;;;12.60;6.30;;;17.50;99.90;;;;;;4955538;28;20038;-84
2023/06/01 06:42:33;;;;;;;12.88;6.05;;;17.60;99.90;;;;;;4957105;28;20027;-84
2023/06/01 06:44:59;;;;;;;15.18;6.95;;;17.70;99.90;;;;;;4956128;28;20693;-84
2023/06/01 06:47:25;;;;;;;9.85;6.03;;;17.80;99.90;;;;;;4953915;28;20031;-84
2023/06/01 06:49:51;;;;;;;13.57;6.70;;;17.80;99.90;;;;;;4954895;28;20034;-84
2023/06/01 06:52:17;;;;;;;14.77;6.53;;;17.90;99.90;;;;;;4955072;28;20414;-84
2023/06/01 06:54:43;;;;;;;12.70;5.70;;;17.90;99.90;;;;;;4954471;28;20031;-85
2023/06/01 06:57:09;;;;;;;10.27;6.38;;;18.00;99.90;;;;;;4954692;28;20023;-85
2023/06/01 06:59:35;;;;;;;14.10;7.03;;;18.10;99.90;;;;;;4954607;28;20475;-84
2023/06/01 07:02:00;;;;;;;13.45;6.60;;;18.10;99.90;;;;;;4955092;28;20123;-85
2023/06/01 07:04:28;;;;;;;15.77;6.38;;;18.30;99.90;;;;;;4955491;28;20360;-84
2023/06/01 07:06:53;;;;;;;15.80;6.22;;;18.30;99.90;;;;;;4958105;28;20034;-84
2023/06/01 07:09:19;;;;;;;18.13;7.07;;;18.30;99.90;;;;;;4958584;28;20031;-84
2023/06/01 07:11:45;;;;;;;12.27;6.75;;;18.40;99.90;;;;;;4957079;28;20158;-85
2023/06/01 07:14:11;;;;;;;12.45;5.82;;;18.40;99.90;;;;;;4953761;28;20031;-85
2023/06/01 07:16:36;;;;;;;15.30;6.22;;;18.50;99.90;;;;;;4957988;28;20506;-86
2023/06/01 07:19:02;;;;;;;12.52;6.45;;;18.40;99.90;;;;;;4954054;28;20026;-86
2023/06/01 07:21:28;;;;;;;13.48;6.10;;;18.40;99.90;;;;;;4953746;28;20080;-86
2023/06/01 07:23:54;;;;;;;11.23;5.70;;;18.40;99.90;;;;;;4954538;28;20057;-85
2023/06/01 07:26:20;;;;;;;11.43;6.03;;;18.40;99.90;;;;;;4956425;28;20035;-86
2023/06/01 07:28:46;;;;;;;15.00;6.43;;;18.40;99.90;;;;;;4959258;28;20078;-85
2023/06/01 07:31:11;;;;;;;11.52;6.13;;;18.60;99.90;;;;;;4956987;28;20554;-85
2023/06/01 07:33:37;;;;;;;9.18;5.97;;;18.50;99.90;;;;;;4956854;28;20101;-85
2023/06/01 07:36:06;;;;;;;11.75;6.25;;;18.50;99.90;;;;;;4955546;28;20122;-85
2023/06/01 07:38:32;;;;;;;17.02;6.20;;;18.60;99.90;;;;;;4958502;28;20043;-85
2023/06/01 07:40:58;;;;;;;10.52;5.55;;;18.70;99.90;;;;;;4960544;28;20499;-85
2023/06/01 07:43:24;;;;;;;16.23;6.18;;;18.80;99.90;;;;;;4959350;28;20039;-86
2023/06/01 07:45:49;;;;;;;13.63;5.90;;;18.90;99.90;;;;;;4959590;28;20130;-85
2023/06/01 07:48:16;;;;;;;14.43;6.72;;;18.90;99.90;;;;;;4958928;28;20193;-85
2023/06/01 07:50:41;;;;;;;12.38;6.28;;;19.00;99.90;;;;;;4962002;28;20042;-86
2023/06/01 07:53:09;;;;;;;13.10;6.45;;;19.10;99.90;;;;;;4961668;28;20073;-85
2023/06/01 07:55:34;;;;;;;14.18;6.20;;;19.20;99.90;;;;;;4960727;28;20035;-85
2023/06/01 07:58:00;;;;;;;10.27;6.28;;;19.20;99.90;;;;;;4960952;28;21120;-85
2023/06/01 08:00:26;;;;;;;13.20;6.38;;;19.10;99.90;;;;;;4956043;28;20059;-86
2023/06/01 08:02:52;;;;;;;12.63;6.18;;;19.20;99.90;;;;;;4954116;28;20446;-85
2023/06/01 08:05:18;;;;;;;9.18;5.38;;;19.20;99.90;;;;;;4956768;28;20078;-85
2023/06/01 08:07:45;;;;;;;12.02;6.88;;;19.20;99.90;;;;;;4958898;28;20494;-85
2023/06/01 08:10:13;;;;;;;13.85;6.30;;;19.30;99.90;;;;;;4959831;28;20051;-86
2023/06/01 08:12:38;;;;;;;12.13;6.13;;;19.40;99.90;;;;;;4955960;28;20052;-86
2023/06/01 08:15:05;;;;;;;12.27;5.85;;;19.50;99.90;;;;;;4957962;28;20034;-86
2023/06/01 08:17:31;;;;;;;12.35;6.38;;;19.60;99.90;;;;;;4959090;28;20039;-86
2023/06/01 08:19:56;;;;;;;16.85;6.65;;;19.60;99.90;;;;;;4960056;28;20037;-86
2023/06/01 08:22:23;;;;;;;10.68;5.60;;;19.70;99.90;;;;;;4956635;28;20034;-86
2023/06/01 08:24:51;;;;;;;9.82;5.93;;;19.80;99.90;;;;;;4955860;28;20149;-85
2023/06/01 08:27:22;;;;;;;10.70;5.72;;;19.90;99.90;;;;;;4957550;28;20130;-86
2023/06/01 08:29:48;;;;;;;9.88;6.00;;;20.00;99.90;;;;;;4958648;28;20070;-86
2023/06/01 08:32:14;;;;;;;11.93;5.82;;;20.00;99.90;;;;;;4957790;28;20074;-86
2023/06/01 08:34:40;;;;;;;11.88;6.25;;;20.20;99.90;;;;;;4958181;28;20030;-85
2023/06/01 08:37:06;;;;;;;10.95;5.53;;;20.30;99.90;;;;;;4954677;28;20035;-86
2023/06/01 08:39:31;;;;;;;12.52;6.10;;;20.50;99.90;;;;;;4957252;28;20073;-86
2023/06/01 08:42:13;;;;;;;10.07;5.30;;;20.50;99.90;;;;;;4957946;28;20751;-86
2023/06/01 08:44:40;;;;;;;13.35;5.65;;;20.60;99.90;;;;;;4957828;28;20223;-86
2023/06/01 08:47:07;;;;;;;10.00;5.55;;;20.70;99.90;;;;;;4957626;28;20029;-86
2023/06/01 08:49:34;;;;;;;11.32;6.25;;;20.90;99.90;;;;;;4955098;28;20055;-86
2023/06/01 08:52:01;;;;;;;10.00;5.50;;;21.00;99.90;;;;;;4955413;28;20038;-86
2023/06/01 08:54:30;;;;;;;10.93;5.82;;;21.10;99.90;;;;;;4959903;28;20041;-85
2023/06/01 08:57:02;;;;;;;10.88;5.75;;;21.20;99.90;;;;;;4958738;28;20050;-86
2023/06/01 08:59:29;;;;;;;10.43;6.32;;;21.20;99.90;;;;;;4957064;28;20120;-86
2023/06/01 09:01:56;;;;;;;15.13;6.22;;;21.30;99.90;;;;;;4953782;28;20269;-86
2023/06/01 09:04:21;;;;;;;8.63;5.43;;;21.40;99.90;;;;;;4956185;28;20034;-86
2023/06/01 09:06:47;;;;;;;9.48;5.22;;;21.40;99.90;;;;;;4958516;28;20035;-85
2023/06/01 09:09:14;;;;;;;9.85;5.60;;;21.50;99.90;;;;;;4959941;28;20068;-85
2023/06/01 09:11:39;;;;;;;9.70;5.95;;;21.70;99.90;;;;;;4955854;28;20051;-86
2023/06/01 09:14:22;;;;;;;10.40;5.68;;;21.90;99.90;;;;;;4957756;28;20061;-86
2023/06/01 09:16:48;;;;;;;12.18;6.03;;;22.00;99.90;;;;;;4955193;28;20507;-85
2023/06/01 09:19:14;;;;;;;8.27;5.80;;;22.00;99.90;;;;;;4958987;28;20034;-86
2023/06/01 09:21:40;;;;;;;16.77;5.38;;;22.10;99.90;;;;;;4957572;28;20051;-86
2023/06/01 09:24:24;;;;;;;11.75;5.50;;;22.20;99.90;;;;;;4957359;28;20545;-86
2023/06/01 09:26:51;;;;;;;8.57;5.25;;;22.30;99.90;;;;;;4955329;28;20049;-85
2023/06/01 09:29:17;;;;;;;8.20;5.82;;;22.50;99.90;;;;;;4954757;28;20035;-86
2023/06/01 09:31:47;;;;;;;10.95;5.38;;;22.70;99.90;;;;;;4956115;28;20038;-86
2023/06/01 09:34:21;;;;;;;12.98;6.00;;;22.90;99.90;;;;;;4956687;28;20026;-86
2023/06/01 09:36:51;;;;;;;12.57;5.70;;;23.00;99.90;;;;;;4955287;28;20591;-86
2023/06/01 09:39:22;;;;;;;8.73;5.00;;;23.20;99.90;;;;;;4954600;28;20073;-86
2023/06/01 09:42:01;;;;;;;10.50;5.32;;;23.50;99.90;;;;;;4953482;28;20042;-86
2023/06/01 09:44:33;;;;;;;20.63;4.88;;;23.70;99.90;;;;;;4958999;28;20031;-86
2023/06/01 09:47:02;;;;;;;10.00;5.13;;;24.10;99.90;;;;;;4956370;28;20027;-85
2023/06/01 09:49:30;;;;;;;10.68;5.63;;;24.40;99.90;;;;;;4956386;28;20030;-86
2023/06/01 09:52:04;;;;;;;11.35;5.10;;;24.60;99.90;;;;;;4952917;28;20049;-85
2023/06/01 09:54:31;;;;;;;;;;;24.70;99.90;;;;;;4956339;28;20046;-80
2023/06/01 09:56:58;;;;;;;8.73;4.75;;;24.80;99.90;;;;;;4955983;28;19942;-77
2023/06/01 09:59:25;;;;;;;9.93;4.95;;;25.00;99.90;;;;;;4956939;28;20093;-73
2023/06/01 10:01:54;;;;;;;10.95;5.55;;;25.10;99.90;;;;;;4955506;28;20109;-74
2023/06/01 10:04:22;;;;;;;8.65;5.20;;;25.30;99.90;;;;;;4954698;28;20122;-76
2023/06/01 10:06:51;;;;;;;8.48;5.63;;;25.40;99.90;;;;;;4954538;28;20034;-77
2023/06/01 10:09:19;;;;;;;6.75;5.03;;;25.50;99.90;;;;;;4953911;28;20027;-76
2023/06/01 10:11:46;;;;;;;6.43;4.70;;;25.60;99.90;;;;;;4954798;28;20094;-76
2023/06/01 10:14:12;;;;;;;9.48;4.82;;;25.70;99.90;;;;;;4956784;28;20087;-77
2023/06/01 10:16:39;;;;;;;8.95;4.93;;;25.80;99.90;;;;;;4955981;28;20037;-76
2023/06/01 10:19:05;;;;;;;8.45;4.72;;;25.90;99.90;;;;;;4954127;28;20039;-77
2023/06/01 10:21:33;;;;;;;9.73;5.00;;;26.20;99.90;;;;;;4955991;28;20033;-76
2023/06/01 10:23:58;;;;;;;9.30;4.60;;;26.30;99.90;;;;;;4955573;28;20081;-76
2023/06/01 10:26:27;;;;;;;8.13;4.97;;;26.40;99.90;;;;;;4955801;28;20035;-76
2023/06/01 10:28:55;;;;;;;11.98;5.10;;;26.40;99.30;;;;;;4955681;28;20031;-76
2023/06/01 10:31:38;;;;;;;9.73;4.65;;;26.50;98.30;;;;;;4951935;28;20411;-75
2023/06/01 10:34:04;;;;;;;6.43;4.35;;;26.50;98.10;;;;;;4954412;28;20118;-75
2023/06/01 10:36:52;;;;;;;8.05;4.63;;;26.40;97.30;;;;;;4955150;28;20033;-75
2023/06/01 10:39:22;;;;;;;7.55;4.95;;;26.20;99.20;;;;;;4952136;28;20446;-76
2023/06/01 10:41:47;;;;;;;17.75;5.47;;;26.20;99.20;;;;;;4953196;28;20049;-74
2023/06/01 10:44:39;;;;;;;7.28;4.90;;;26.30;98.60;;;;;;4951922;28;20031;-77
2023/06/01 10:47:13;;;;;;;11.52;5.22;;;26.50;97.30;;;;;;4953799;28;20031;-75
2023/06/01 10:49:51;;;;;;;;;;;26.60;97.60;;;;;;4956383;28;20431;-75
2023/06/01 10:52:38;;;;;;;10.10;5.18;;;26.60;98.20;;;;;;4954419;28;20012;-75
2023/06/01 10:55:06;;;;;;;7.45;4.78;;;26.60;97.00;;;;;;4954562;28;20042;-73
2023/06/01 10:57:32;;;;;;;8.80;5.35;;;26.60;97.00;;;;;;4955973;28;20031;-74
2023/06/01 11:00:18;;;;;;;6.53;4.78;;;26.70;98.60;;;;;;4954687;28;20027;-75
2023/06/01 11:03:00;;;;;;;8.43;5.25;;;26.90;97.50;;;;;;4953951;28;20065;-75
2023/06/01 11:05:36;;;;;;;8.55;5.15;;;27.10;96.20;;;;;;4953780;28;20053;-75
2023/06/01 11:08:02;;;;;;;7.13;5.00;;;27.40;97.00;;;;;;4957425;28;20039;-75
2023/06/01 11:10:52;;;;;;;10.63;5.07;;;27.70;95.90;;;;;;4955142;28;20038;-75
2023/06/01 11:13:19;;;;;;;8.43;4.72;;;28.00;94.80;;;;;;4953451;28;20043;-76
2023/06/01 11:16:03;;;;;;;8.90;5.25;;;28.00;93.30;;;;;;4953796;28;20030;-76
2023/06/01 11:18:41;;;;;;;12.73;4.72;;;28.30;93.90;;;;;;4953140;28;20031;-76
2023/06/01 11:21:29;;;;;;;12.98;4.90;;;28.50;92.90;;;;;;4954567;28;20444;-76
2023/06/01 11:23:57;;;;;;;6.82;5.00;;;28.50;93.30;;;;;;4952269;28;20026;-76
2023/06/01 11:26:32;;;;;;;6.70;4.63;;;28.40;93.00;;;;;;4952894;28;20120;-76
2023/06/01 11:29:15;;;;;;;9.48;4.82;;;28.30;93.50;;;;;;4956319;28;20114;-76
2023/06/01 11:31:46;;;;;;;9.63;5.00;;;28.30;91.70;;;;;;4955219;28;20046;-76
2023/06/01 11:34:13;;;;;;;9.73;4.70;;;28.20;91.70;;;;;;4951979;28;20049;-76
2023/06/01 11:36:50;;;;;;;10.27;4.63;;;28.00;92.30;;;;;;4952946;28;20038;-76
2023/06/01 11:39:22;;;;;;;7.57;4.72;;;28.00;92.00;;;;;;4953413;28;20023;-76
2023/06/01 11:41:53;;;;;;;9.43;4.93;;;27.90;92.40;;;;;;4954637;28;20447;-76
2023/06/01 11:44:20;;;;;;;10.65;4.60;;;27.80;92.00;;;;;;5002428;23;20050;-74
2023/06/01 11:46:53;;;;;;;9.93;4.93;;;27.70;91.60;;;;;;5002616;28;20030;-73
2023/06/01 11:49:19;;;;;;;5.70;4.60;;;28.00;91.70;;;;;;5004085;28;20025;-74
2023/06/01 11:51:45;;;;;;;7.55;5.05;;;28.10;91.20;;;;;;5007046;28;20285;-75
2023/06/01 11:54:10;;;;;;;7.75;4.75;;;28.20;91.50;;;;;;5005940;28;20034;-72
2023/06/01 11:56:39;;;;;;;9.75;4.70;;;28.20;91.50;;;;;;5004305;28;20177;-72
2023/06/01 11:59:09;;;;;;;8.00;4.82;;;28.20;91.40;;;;;;5005999;28;20049;-71
2023/06/01 12:01:46;;;;;;;11.25;5.80;;;28.30;90.80;;;;;;5007108;28;20405;-71
2023/06/01 12:04:21;;;;;;;9.25;5.88;;;28.20;91.50;;;;;;5005174;28;20026;-70
2023/06/01 12:06:46;;;;;;;7.63;4.85;;;28.20;91.40;;;;;;5002922;28;20124;-71
2023/06/01 12:09:15;;;;;;;10.30;4.80;;;27.80;91.40;;;;;;5006264;28;20716;-70
2023/06/01 12:11:42;;;;;;;12.38;5.15;;;27.80;91.10;;;;;;5005298;28;20038;-72
2023/06/01 12:14:09;;;;;;;11.15;5.53;;;27.60;91.20;;;;;;5006314;28;21410;-75
2023/06/01 12:17:02;;;;;;;6.40;4.63;;;27.70;92.20;;;;;;5004303;28;20026;-75
2023/06/01 12:19:28;;;;;;;9.75;5.07;;;28.10;90.90;;;;;;5004045;28;20046;-74
2023/06/01 12:21:56;;;;;;;11.35;5.05;;;28.20;92.00;;;;;;5003795;28;20041;-74
2023/06/01 12:24:33;;;;;;;7.97;5.00;;;28.20;90.70;;;;;;5004833;28;20026;-73
2023/06/01 12:26:59;;;;;;;8.05;4.57;;;28.30;90.30;;;;;;5003535;28;20069;-73
2023/06/01 12:29:36;;;;;;;8.52;5.18;;;28.10;90.30;;;;;;5005790;28;20026;-73
2023/06/01 12:32:02;;;;;;;10.45;4.40;;;28.00;90.80;;;;;;4998026;28;20046;-74
2023/06/01 12:34:28;;;;;;;7.65;4.95;;;27.80;91.50;;;;;;5004906;28;20416;-74
2023/06/01 12:36:54;;;;;;;8.35;4.80;;;27.80;90.50;;;;;;5005921;28;20022;-72
2023/06/01 12:39:36;;;;;;;11.98;4.78;;;27.70;91.00;;;;;;4987493;28;20026;-74
2023/06/01 12:42:03;;;;;;;9.18;4.45;;;27.80;90.60;;;;;;5005528;28;20033;-74
2023/06/01 12:44:29;;;;;;;9.32;5.22;;;27.70;91.00;;;;;;5004285;28;20026;-73
2023/06/01 12:46:59;;;;;;;8.27;5.25;;;27.60;91.80;;;;;;5004318;28;20061;-70